Aeroporto :
LOGIN :

Iscrizione | Disclaimer

   EN    FR    IT 

 










Sommario :    VFR   VFR Marginale   IFR   IFR Intensivo   IFR Molto Intensivo
Visibilità : 
Base nubi : 
>= 8 km
>= 3000ft
5 / 8 km
1000 / 3000 ft
1500m / 5 km
500 / 1000 ft
800 / 1500m
200 / 500 ft
< 800m
< 200 ft
Simboli :   Temporali  Nebbia  Neve Forte  Precipitazioni Forti  Vento > 20 kt
SIGMETs :   Varie  Temporali  Ghiacco  Turbolenza  Onda orograficha  Ceneri Vulcaniche






- Altitudine del aeroporto : 22 ft
- Codice IATA : LDY


EGAE - Londonderry Eglington

ULTIMO METAR :
  • 241750Z 28014KT 9999 VCSH FEW010 SCT017 05/04 Q1001 RESHRA

METARs OBSOLETI :
  • 241720Z 28014G24KT 9999 -SHRA FEW010 BKN018 06/05 Q1000
  • 241650Z 29012KT 9999 VCSH FEW009 BKN015 07/05 Q1000
  • 241620Z 29015KT 9999 -SHRA FEW013 BKN022 07/05 Q1000
  • 241550Z 29015KT 9999 VCSH FEW013 SCT022 06/04 Q0999
  • 241520Z 29014KT 9999 VCSH FEW013 SCT020 06/04 Q0999

TAF TAF EGAE
Valido dal 24 a 18 ore il 24 a 22 ore UTC


241656Z 2418/2422 26012KT 9999 SCT020
TEMPO 2418/2422 27018G28KT 6000 SHRA BKN012
PROB30
TEMPO 2418/2422 4000 +SHRA



MetMap, La meteo Aeronautica in un colpo d'occhio ! - Copyright ORBIFLY Dicembre 2007 - Disclaimer

ORBIFLY MET'MAP TEAM :

Programmazione e sviluppo : Alexandra Zaïnal
Concezione : Baudouin d'Aumeries
Aiuto per la programmazione : Marc-Olivier Méhu
Supporto tecnico e logistico : Manuel Goepfert
Aiuto per la traduzione : Arnaldo La Scala

Contatto : metmap@orbifly.com




FONTI E CREDITI :

   NOAA